Time;durP1;ratioP1;P1;durP2;ratioP2;P2;SDS_P1;SDS_P2;PMS_P1;PMS_P2;Temp;Humidity;BMP_temperature;BMP_pressure;BME280_temperature;BME280_humidity;BME280_pressure;Samples;Min_cycle;Max_cycle;Signal;HPM_P1;HPM_P2
2023/09/10 00:00:50;;;;;;;51.58;9.23;;;;;;;20.89;55.23;100980.19;4998584;28;20026;-89
2023/09/10 00:03:16;;;;;;;13.27;5.60;;;;;;;20.86;55.52;100983.28;4971865;28;20124;-85
2023/09/10 00:05:41;;;;;;;9.60;4.95;;;;;;;20.79;55.55;100985.94;5003694;28;20037;-86
2023/09/10 00:08:07;;;;;;;16.63;5.50;;;;;;;20.76;55.50;100985.44;4991799;28;20053;-87
2023/09/10 00:10:32;;;;;;;12.40;5.63;;;;;;;20.75;55.62;100994.66;4940376;28;20096;-88
2023/09/10 00:12:57;;;;;;;25.38;5.40;;;;;;;20.75;55.38;100972.81;4991583;28;20105;-89
2023/09/10 00:15:23;;;;;;;17.88;5.18;;;;;;;20.73;55.69;100985.81;4990887;28;20032;-86
2023/09/10 00:17:48;;;;;;;13.88;4.85;;;;;;;20.75;55.68;100989.19;4976711;28;21098;-82
2023/09/10 00:20:14;;;;;;;22.45;5.18;;;;;;;20.61;55.83;100966.22;4990757;28;20041;-84
2023/09/10 00:22:42;;;;;;;11.70;5.68;;;;;;;20.69;55.99;100989.94;4990788;28;20022;-87
2023/09/10 00:25:08;;;;;;;26.08;5.82;;;;;;;20.63;55.90;100997.84;4973474;28;20038;-88
2023/09/10 00:27:33;;;;;;;23.38;5.53;;;;;;;20.63;56.01;100992.38;4990621;28;20079;-90
2023/09/10 00:29:58;;;;;;;17.27;6.03;;;;;;;20.49;56.22;100968.53;4990821;28;20034;-88
2023/09/10 00:32:24;;;;;;;15.48;5.60;;;;;;;20.60;55.69;100998.19;4991002;28;20041;-81
2023/09/10 00:34:49;;;;;;;19.27;5.05;;;;;;;20.61;55.87;100999.88;4989604;28;20027;-84
2023/09/10 00:37:16;;;;;;;14.95;4.90;;;;;;;20.58;56.16;100999.38;4990367;28;20406;-84
2023/09/10 00:39:42;;;;;;;16.58;5.47;;;;;;;20.55;56.21;101000.59;4989001;28;20042;-86
2023/09/10 00:42:09;;;;;;;13.32;6.18;;;;;;;20.55;56.47;101000.59;4988628;28;20023;-85
2023/09/10 00:44:36;;;;;;;21.55;5.43;;;;;;;20.58;56.50;101004.84;4990279;28;20054;-83
2023/09/10 00:47:02;;;;;;;20.92;5.50;;;;;;;20.60;56.45;101011.00;4990124;28;20050;-85
2023/09/10 00:49:27;;;;;;;14.48;5.70;;;;;;;20.53;56.90;101002.66;4990362;28;20041;-85
2023/09/10 00:51:53;;;;;;;14.70;6.28;;;;;;;20.57;56.77;101009.50;4972243;28;20034;-87
2023/09/10 00:54:23;;;;;;;17.25;6.43;;;;;;;20.54;56.91;101009.00;4990821;28;20029;-84
2023/09/10 00:56:49;;;;;;;14.73;6.68;;;;;;;20.59;56.88;101018.34;4990875;28;20045;-86
2023/09/10 00:59:15;;;;;;;17.73;7.03;;;;;;;20.54;57.26;101009.84;4974780;28;20027;-82
2023/09/10 01:01:40;;;;;;;34.72;7.35;;;;;;;20.54;57.24;101009.84;4991612;28;20038;-84
2023/09/10 01:04:06;;;;;;;31.02;5.95;;;;;;;20.41;57.57;101009.56;4991830;28;20019;-85
2023/09/10 01:06:31;;;;;;;30.80;7.55;;;;;;;20.22;57.72;100982.66;4992579;28;20046;-83
2023/09/10 01:08:57;;;;;;;29.15;6.38;;;;;;;20.36;57.79;101008.41;4990364;28;20467;-86
2023/09/10 01:11:25;;;;;;;32.38;7.22;;;;;;;20.23;57.89;100975.31;4990061;28;20450;-80
2023/09/10 01:14:07;;;;;;;20.40;5.43;;;;;;;20.40;57.95;101007.00;4989773;28;20030;-84
2023/09/10 01:16:43;;;;;;;32.22;7.53;;;;;;;20.20;58.17;100979.25;4990331;28;20038;-82
2023/09/10 01:19:35;;;;;;;26.30;6.47;;;;;;;20.38;57.87;101004.47;4989837;28;20080;-85
2023/09/10 01:22:09;;;;;;;19.67;6.40;;;;;;;20.35;58.13;101006.69;4891832;29;20045;-84
2023/09/10 01:24:51;;;;;;;16.60;6.05;;;;;;;20.37;58.04;101008.22;4860943;29;20048;-88
2023/09/10 01:27:17;;;;;;;18.08;5.97;;;;;;;20.19;57.85;100983.00;4896069;29;20049;-85
2023/09/10 01:29:43;;;;;;;20.98;6.18;;;;;;;20.38;57.75;101001.75;4894634;29;20043;-81
2023/09/10 01:32:14;;;;;;;29.63;7.05;;;;;;;20.46;57.08;101011.75;4893838;29;20434;-83
2023/09/10 01:34:48;;;;;;;9.63;3.70;;;;;;;20.45;55.58;101000.00;4893379;29;20028;-84
2023/09/10 01:37:23;;;;;;;8.68;4.03;;;;;;;20.56;53.30;101001.44;4893831;29;20044;-84
2023/09/10 01:39:53;;;;;;;8.05;2.90;;;;;;;20.61;52.21;101010.81;4894680;29;20054;-87
2023/09/10 01:42:21;;;;;;;11.98;3.58;;;;;;;20.51;51.59;100991.09;4895344;29;20097;-80
2023/09/10 01:44:47;;;;;;;9.80;4.13;;;;;;;20.67;51.65;101014.72;4894650;29;20032;-83
2023/09/10 01:47:13;;;;;;;11.93;4.28;;;;;;;20.71;53.34;101015.19;4877454;29;20724;-87
2023/09/10 01:49:39;;;;;;;21.80;6.72;;;;;;;20.72;53.97;101011.44;4878386;29;20044;-84
2023/09/10 01:52:04;;;;;;;19.10;7.93;;;;;;;20.71;55.63;101010.59;4877453;29;20045;-85
2023/09/10 01:54:30;;;;;;;35.90;10.13;;;;;;;20.71;56.12;101009.72;4877692;29;20044;-87
2023/09/10 01:56:55;;;;;;;20.30;7.30;;;;;;;20.71;55.61;101004.25;4882946;29;20126;-83
2023/09/10 01:59:20;;;;;;;21.27;8.18;;;;;;;20.44;56.17;100957.28;4940874;28;20506;-84
2023/09/10 02:01:46;;;;;;;25.50;10.27;;;;;;;20.60;56.60;100992.72;4972376;28;20047;-86
2023/09/10 02:04:11;;;;;;;30.42;10.25;;;;;;;20.53;57.34;100997.22;4971320;28;20031;-80
2023/09/10 02:06:37;;;;;;;43.55;10.73;;;;;;;20.45;57.72;100989.06;4970877;28;20042;-85
2023/09/10 02:09:02;;;;;;;27.17;10.13;;;;;;;20.40;57.77;100986.00;4971342;28;20091;-86
2023/09/10 02:11:28;;;;;;;31.85;10.63;;;;;;;20.52;57.79;101000.09;4971376;28;20529;-85
2023/09/10 02:13:53;;;;;;;29.10;11.50;;;;;;;20.54;57.62;101009.84;4971293;28;20042;-82
2023/09/10 02:16:19;;;;;;;28.73;10.43;;;;;;;20.54;57.70;101003.53;4971361;28;20065;-84
2023/09/10 02:18:45;;;;;;;23.67;8.50;;;;;;;20.52;57.66;101006.44;4988868;28;20081;-85
2023/09/10 02:21:11;;;;;;;10.25;3.80;;;;;;;20.57;56.31;101001.28;4994019;28;20097;-81
2023/09/10 02:23:38;;;;;;;22.23;5.78;;;;;;;20.65;56.02;101000.38;4993348;28;20070;-86
2023/09/10 02:26:03;;;;;;;16.58;4.32;;;;;;;20.72;54.59;100989.56;4999118;28;20047;-78
2023/09/10 02:28:29;;;;;;;5.65;2.88;;;;;;;20.77;53.76;100998.06;5018423;28;20022;-79
2023/09/10 02:30:54;;;;;;;5.78;2.75;;;;;;;20.68;53.54;100978.13;5018099;28;20046;-77
2023/09/10 02:33:20;;;;;;;6.43;2.78;;;;;;;20.89;53.16;100999.34;5017173;28;20095;-79
2023/09/10 02:35:46;;;;;;;6.30;2.50;;;;;;;20.88;53.49;101001.25;5018867;28;20042;-82
2023/09/10 02:38:11;;;;;;;13.27;3.55;;;;;;;20.90;53.46;101006.53;5013109;28;20036;-87
2023/09/10 02:40:37;;;;;;;8.90;2.53;;;;;;;20.91;53.70;100997.28;5000677;28;20038;-87
2023/09/10 02:43:02;;;;;;;5.35;2.53;;;;;;;20.80;53.82;100992.22;4976459;28;20568;-86
2023/09/10 02:45:28;;;;;;;7.68;2.50;;;;;;;20.82;53.81;101001.13;4993763;28;20101;-84
2023/09/10 02:47:53;;;;;;;11.95;3.10;;;;;;;20.85;53.63;101000.75;4992479;28;20233;-82
2023/09/10 02:50:19;;;;;;;11.95;3.63;;;;;;;20.90;53.28;101009.25;4992594;28;20036;-84
2023/09/10 02:52:44;;;;;;;14.77;4.15;;;;;;;20.89;53.19;100993.88;4992755;28;20508;-82
2023/09/10 02:55:10;;;;;;;5.85;2.90;;;;;;;20.88;53.21;100984.84;4992038;28;20027;-86
2023/09/10 02:57:35;;;;;;;5.35;2.40;;;;;;;20.85;53.45;101003.50;4991219;28;20034;-87
2023/09/10 03:00:00;;;;;;;6.72;3.20;;;;;;;20.86;53.55;101002.44;4992556;28;20026;-84
2023/09/10 03:02:26;;;;;;;10.02;4.22;;;;;;;20.88;53.74;101000.41;4993780;28;20180;-86
2023/09/10 03:04:51;;;;;;;9.23;2.92;;;;;;;20.90;53.71;100998.31;4992866;28;20030;-84
2023/09/10 03:07:17;;;;;;;8.15;2.85;;;;;;;20.84;54.12;100988.09;4992377;28;20027;-86
2023/09/10 03:09:42;;;;;;;8.65;2.63;;;;;;;20.87;54.21;100987.75;4992576;28;20030;-85
2023/09/10 03:12:28;;;;;;;14.60;4.45;;;;;;;20.88;54.41;100989.47;4991916;28;20026;-86
2023/09/10 03:14:54;;;;;;;8.38;2.80;;;;;;;20.87;54.56;100994.06;4992045;28;20125;-86
2023/09/10 03:17:21;;;;;;;7.53;2.75;;;;;;;20.92;54.46;100993.50;4991755;28;20550;-85
2023/09/10 03:19:47;;;;;;;15.70;3.60;;;;;;;20.95;54.54;100993.13;4991472;28;20022;-84
2023/09/10 03:22:13;;;;;;;7.53;3.70;;;;;;;20.91;54.71;100987.22;4941204;28;20415;-78
2023/09/10 03:24:38;;;;;;;7.22;2.80;;;;;;;21.03;54.56;100993.94;4991863;28;20517;-84
2023/09/10 03:27:04;;;;;;;9.18;3.13;;;;;;;21.05;54.50;101001.94;4990886;28;20034;-83
2023/09/10 03:29:32;;;;;;;14.25;3.58;;;;;;;21.07;54.54;100997.13;4957165;28;20042;-85
2023/09/10 03:31:58;;;;;;;16.00;6.15;;;;;;;21.07;54.74;101000.72;4991383;28;20041;-83
2023/09/10 03:34:23;;;;;;;17.80;7.18;;;;;;;21.16;54.50;101012.47;4972881;28;20030;-84
2023/09/10 03:36:49;;;;;;;15.35;2.80;;;;;;;21.21;54.33;101007.31;4978994;28;20224;-86
2023/09/10 03:39:14;;;;;;;5.93;2.80;;;;;;;21.05;54.34;100980.06;4991483;28;20502;-82
2023/09/10 03:41:40;;;;;;;10.25;2.95;;;;;;;21.20;54.47;101011.09;4991372;28;20040;-84
2023/09/10 03:44:05;;;;;;;6.65;2.88;;;;;;;21.25;54.39;101014.16;4991254;28;20104;-85
2023/09/10 03:46:31;;;;;;;16.42;4.13;;;;;;;21.31;54.39;101007.06;4991293;28;20057;-83
2023/09/10 03:48:56;;;;;;;13.30;3.33;;;;;;;21.34;54.23;101021.25;4990852;28;20030;-84
2023/09/10 03:51:21;;;;;;;17.65;3.15;;;;;;;21.37;53.94;101009.94;4990967;28;20030;-83
2023/09/10 03:53:47;;;;;;;9.77;3.28;;;;;;;21.33;53.88;101027.75;4991804;28;20033;-84
2023/09/10 03:56:13;;;;;;;8.95;3.38;;;;;;;21.22;53.89;101017.25;4991584;28;20570;-81
2023/09/10 03:58:39;;;;;;;14.88;3.40;;;;;;;21.23;54.30;101031.75;4991770;28;20081;-84
2023/09/10 04:01:04;;;;;;;12.52;3.30;;;;;;;21.25;54.27;101030.56;4991582;28;20026;-86
2023/09/10 04:03:29;;;;;;;10.38;3.95;;;;;;;21.27;54.93;101025.75;4991126;28;20046;-86
2023/09/10 04:05:55;;;;;;;8.55;3.63;;;;;;;20.95;55.61;100971.25;4991249;28;20034;-83
2023/09/10 04:08:20;;;;;;;11.00;4.60;;;;;;;21.33;55.58;101035.94;4991284;28;20509;-86
2023/09/10 04:10:46;;;;;;;10.68;4.32;;;;;;;21.15;55.60;101006.19;4990543;28;20470;-85
2023/09/10 04:13:11;;;;;;;11.02;4.25;;;;;;;21.32;55.96;101031.50;4991298;28;20033;-83
2023/09/10 04:15:37;;;;;;;15.07;4.40;;;;;;;21.37;56.43;101029.09;4990516;28;20156;-85
2023/09/10 04:18:06;;;;;;;16.25;3.58;;;;;;;21.41;57.88;101035.88;4990280;28;20030;-79
2023/09/10 04:20:32;;;;;;;9.45;3.42;;;;;;;21.48;58.53;101031.34;4990643;28;20022;-84
2023/09/10 04:22:57;;;;;;;22.52;5.70;;;;;;;21.52;58.72;101026.38;4991267;28;20030;-84
2023/09/10 04:25:22;;;;;;;32.17;9.10;;;;;;;21.56;58.50;101025.78;4991034;28;20609;-83
2023/09/10 04:27:48;;;;;;;20.27;4.60;;;;;;;21.54;59.08;101027.03;4990167;28;20033;-84
2023/09/10 04:30:13;;;;;;;10.25;4.18;;;;;;;21.40;60.49;101001.34;4990577;28;20031;-85
2023/09/10 04:32:39;;;;;;;26.40;4.43;;;;;;;21.46;62.55;101027.97;4972529;28;20092;-85
2023/09/10 04:35:05;;;;;;;11.30;3.90;;;;;;;21.44;63.16;101035.50;4953457;28;20046;-82
2023/09/10 04:37:31;;;;;;;13.88;5.35;;;;;;;21.39;63.90;101037.94;4990724;28;20119;-82
2023/09/10 04:39:56;;;;;;;11.85;4.85;;;;;;;21.34;64.10;101040.41;4990199;28;20546;-81
2023/09/10 04:42:22;;;;;;;13.85;4.25;;;;;;;21.34;64.79;101034.06;4990350;28;20121;-86
2023/09/10 04:44:48;;;;;;;11.80;3.83;;;;;;;21.19;65.59;101023.09;4990314;28;20030;-83
2023/09/10 04:47:14;;;;;;;16.00;4.50;;;;;;;21.28;65.96;101040.28;4989708;28;20050;-82
2023/09/10 04:49:39;;;;;;;12.63;5.70;;;;;;;21.31;66.28;101043.50;4989924;28;20117;-84
2023/09/10 04:52:05;;;;;;;14.40;6.97;;;;;;;21.35;66.86;101033.88;4991413;28;20204;-84
2023/09/10 04:54:30;;;;;;;26.27;5.63;;;;;;;21.33;66.81;101035.09;4941655;28;20342;-84
2023/09/10 04:56:56;;;;;;;16.02;6.35;;;;;;;21.45;66.33;101041.81;4989772;28;20612;-85
2023/09/10 04:59:21;;;;;;;16.55;5.35;;;;;;;21.55;65.92;101045.16;4989703;28;20081;-86
2023/09/10 05:01:47;;;;;;;18.05;5.70;;;;;;;21.54;65.64;101051.66;4989625;28;20029;-87
2023/09/10 05:04:13;;;;;;;17.38;6.47;;;;;;;21.30;65.06;101000.75;4974301;28;20403;-88
2023/09/10 05:06:38;;;;;;;18.45;5.80;;;;;;;21.61;64.80;101048.00;4991313;28;20088;-87
2023/09/10 05:09:04;;;;;;;24.48;5.45;;;;;;;21.50;64.59;101023.81;4990358;28;20545;-85
2023/09/10 05:11:29;;;;;;;16.48;5.68;;;;;;;21.65;64.75;101051.19;4990548;28;20410;-85
2023/09/10 05:13:54;;;;;;;23.90;6.95;;;;;;;21.66;65.00;101048.28;4990741;28;20042;-87
2023/09/10 05:16:20;;;;;;;14.18;7.10;;;;;;;21.67;65.28;101047.25;4990429;28;20032;-85
2023/09/10 05:18:47;;;;;;;13.25;4.57;;;;;;;21.67;65.54;101052.75;4953536;28;20053;-81
2023/09/10 05:21:13;;;;;;;15.95;5.13;;;;;;;21.69;65.73;101053.38;4989506;28;20042;-83
2023/09/10 05:23:39;;;;;;;26.48;5.82;;;;;;;21.68;65.78;101048.94;4972490;28;20038;-84
2023/09/10 05:26:05;;;;;;;21.30;4.85;;;;;;;21.78;65.85;101056.03;4989900;28;20022;-82
2023/09/10 05:28:30;;;;;;;17.10;5.40;;;;;;;21.80;65.72;101045.75;4990187;28;20097;-85
2023/09/10 05:30:56;;;;;;;22.25;5.57;;;;;;;21.93;65.61;101056.94;4989908;28;20042;-84
2023/09/10 05:33:21;;;;;;;27.02;6.72;;;;;;;22.01;65.47;101057.72;4990296;28;20049;-81
2023/09/10 05:35:57;;;;;;;16.52;5.28;;;;;;;22.00;65.04;101042.31;4989888;28;20097;-85
2023/09/10 05:38:24;;;;;;;25.23;7.00;;;;;;;22.12;64.76;101065.44;4973055;28;20074;-84
2023/09/10 05:40:50;;;;;;;29.35;5.63;;;;;;;22.22;64.65;101059.69;4989900;28;20065;-84
2023/09/10 05:43:18;;;;;;;24.63;5.05;;;;;;;22.14;64.66;101041.44;4989265;28;20191;-83
2023/09/10 05:45:45;;;;;;;20.15;5.57;;;;;;;22.34;64.33;101077.34;4989669;28;20104;-84
2023/09/10 05:48:11;;;;;;;22.65;6.30;;;;;;;22.40;64.15;101065.63;4972511;28;20134;-85
2023/09/10 05:50:39;;;;;;;21.33;6.70;;;;;;;22.50;64.02;101081.78;4989766;28;20125;-80
2023/09/10 05:53:05;;;;;;;268.05;19.73;;;;;;;22.58;63.70;101079.78;4988708;28;20039;-88
2023/09/10 05:55:30;;;;;;;25.02;5.10;;;;;;;22.65;63.72;101061.56;4989662;28;20018;-80
2023/09/10 05:57:56;;;;;;;23.75;6.07;;;;;;;22.61;63.17;101051.97;4989445;28;20052;-80
2023/09/10 06:00:22;;;;;;;20.42;4.80;;;;;;;22.81;62.71;101078.81;4989749;28;20086;-86
2023/09/10 06:02:49;;;;;;;25.02;6.70;;;;;;;22.87;62.30;101078.06;4970946;28;20047;-80
2023/09/10 06:05:15;;;;;;;33.50;9.07;;;;;;;22.98;62.36;101091.25;4989544;28;20085;-82
2023/09/10 06:07:41;;;;;;;19.45;4.53;;;;;;;23.11;61.97;101085.91;4989412;28;20053;-85
2023/09/10 06:10:09;;;;;;;30.48;5.95;;;;;;;23.18;61.79;101089.56;4954946;28;20042;-81
2023/09/10 06:12:38;;;;;;;17.00;4.55;;;;;;;23.21;61.55;101100.16;4989232;28;20121;-84
2023/09/10 06:15:05;;;;;;;28.65;6.22;;;;;;;23.33;61.23;101089.50;4989425;28;20030;-82
2023/09/10 06:17:30;;;;;;;24.67;6.03;;;;;;;23.44;61.01;101091.75;4989273;28;20038;-80
2023/09/10 06:19:56;;;;;;;22.15;5.95;;;;;;;23.57;60.94;101092.75;4989562;28;20026;-83
2023/09/10 06:22:21;;;;;;;18.95;5.63;;;;;;;23.58;59.98;101071.59;4989055;28;20034;-84
2023/09/10 06:24:47;;;;;;;37.58;7.22;;;;;;;23.66;59.51;101085.19;4989080;28;20030;-83
2023/09/10 06:27:12;;;;;;;56.55;6.72;;;;;;;23.87;59.32;101100.78;4989275;28;20042;-85
2023/09/10 06:29:38;;;;;;;28.13;5.80;;;;;;;23.85;59.21;101096.31;4972344;28;20057;-85
2023/09/10 06:32:04;;;;;;;21.85;5.82;;;;;;;24.05;58.38;101096.47;4989201;28;20038;-85
2023/09/10 06:34:29;;;;;;;17.67;5.78;;;;;;;24.11;57.66;101090.22;4975390;28;20499;-83
2023/09/10 06:36:55;;;;;;;18.38;5.43;;;;;;;24.21;57.55;101089.84;4974912;28;20037;-85
2023/09/10 06:39:21;;;;;;;27.35;5.28;;;;;;;24.21;56.56;101090.72;4992784;28;20145;-82
2023/09/10 06:41:47;;;;;;;25.60;5.38;;;;;;;24.20;56.49;101066.16;4991630;28;20023;-85
2023/09/10 06:44:12;;;;;;;35.70;5.72;;;;;;;24.42;56.33;101080.66;4992008;28;20026;-87
2023/09/10 06:46:38;;;;;;;19.38;5.63;;;;;;;24.50;55.72;101069.47;4991510;28;20399;-80
2023/09/10 06:49:03;;;;;;;17.20;6.10;;;;;;;24.64;54.71;101099.59;4992208;28;20033;-82
2023/09/10 06:51:29;;;;;;;21.30;4.72;;;;;;;24.67;54.53;101101.09;4992221;28;20034;-82
2023/09/10 06:53:54;;;;;;;14.07;4.97;;;;;;;24.67;54.25;101101.94;4992672;28;20022;-83
2023/09/10 06:56:20;;;;;;;30.65;4.97;;;;;;;24.72;54.20;101106.81;4992925;28;20030;-82
2023/09/10 06:58:45;;;;;;;24.55;5.43;;;;;;;24.76;54.72;101089.72;4992316;28;20352;-82
2023/09/10 07:01:12;;;;;;;15.18;4.80;;;;;;;24.88;54.68;101090.84;4992582;28;20685;-83
2023/09/10 07:03:38;;;;;;;28.08;6.07;;;;;;;25.06;54.41;101109.53;4992372;28;20069;-84
2023/09/10 07:06:05;;;;;;;19.10;5.55;;;;;;;25.10;54.27;101118.22;4992580;28;20097;-82
2023/09/10 07:08:30;;;;;;;14.13;5.20;;;;;;;25.13;53.86;101096.63;4973097;28;20025;-81
2023/09/10 07:10:57;;;;;;;17.58;5.35;;;;;;;25.30;53.23;101117.19;4993857;28;20022;-83
2023/09/10 07:13:22;;;;;;;33.08;4.35;;;;;;;25.22;53.36;101109.16;5015415;28;20007;-80
2023/09/10 07:15:48;;;;;;;18.42;4.13;;;;;;;25.15;53.05;101113.78;5017120;28;20065;-78
2023/09/10 07:18:13;;;;;;;30.52;8.15;;;;;;;25.11;53.05;101126.25;5016870;28;20110;-83
2023/09/10 07:20:39;;;;;;;37.95;10.82;;;;;;;24.92;52.69;101124.31;5011808;28;20018;-82
2023/09/10 07:23:04;;;;;;;16.90;5.50;;;;;;;24.82;53.00;101119.19;5013442;28;20037;-84
2023/09/10 07:25:30;;;;;;;18.65;4.47;;;;;;;24.76;53.39;101117.22;5013657;28;20029;-84
2023/09/10 07:27:55;;;;;;;23.80;4.88;;;;;;;24.79;53.26;101132.47;5001852;28;20118;-79
2023/09/10 07:30:21;;;;;;;44.10;9.95;;;;;;;24.88;53.03;101131.28;4995159;28;20053;-78
2023/09/10 07:32:46;;;;;;;26.40;7.38;;;;;;;24.88;52.93;101126.63;4992467;28;20034;-78
2023/09/10 07:35:13;;;;;;;22.63;5.95;;;;;;;24.79;52.67;101127.81;4995351;28;20084;-82
2023/09/10 07:37:38;;;;;;;44.17;5.70;;;;;;;24.75;52.91;101123.78;4991976;28;20040;-81
2023/09/10 07:40:04;;;;;;;42.42;8.23;;;;;;;24.74;52.36;101123.97;4991261;28;20470;-81
2023/09/10 07:42:29;;;;;;;25.13;6.40;;;;;;;24.76;51.57;101122.72;4991198;28;20023;-81
2023/09/10 07:44:55;;;;;;;19.20;5.00;;;;;;;24.90;51.29;101119.00;4990136;28;20030;-84
2023/09/10 07:47:20;;;;;;;28.38;4.65;;;;;;;24.80;51.00;101099.22;4991529;28;20129;-88
2023/09/10 07:49:49;;;;;;;25.00;4.90;;;;;;;25.00;51.69;101123.25;4991453;28;20064;-83
2023/09/10 07:52:14;;;;;;;42.80;8.65;;;;;;;25.04;50.83;101130.06;4991479;28;20030;-85
2023/09/10 07:54:40;;;;;;;21.42;4.20;;;;;;;25.08;50.37;101109.28;4988965;28;20049;-83
2023/09/10 07:57:06;;;;;;;20.77;5.43;;;;;;;25.03;49.34;101111.84;4991222;28;20767;-85
2023/09/10 07:59:31;;;;;;;12.65;4.03;;;;;;;25.22;49.36;101116.56;4973154;28;20026;-80
2023/09/10 08:01:57;;;;;;;17.75;5.57;;;;;;;25.36;48.59;101107.25;4991293;28;20826;-80
2023/09/10 08:04:22;;;;;;;18.30;4.38;;;;;;;25.46;47.79;101113.19;4991028;28;20034;-83
2023/09/10 08:06:47;;;;;;;17.52;3.95;;;;;;;25.43;47.75;101113.63;4990883;28;20479;-84
2023/09/10 08:09:13;;;;;;;10.38;3.70;;;;;;;25.43;47.86;101132.91;4972750;28;20053;-79
2023/09/10 08:11:38;;;;;;;11.30;3.72;;;;;;;25.49;47.77;101125.72;4990714;28;20070;-83
2023/09/10 08:14:04;;;;;;;15.82;3.75;;;;;;;25.55;46.62;101134.00;4989110;28;20053;-81
2023/09/10 08:16:29;;;;;;;22.00;5.05;;;;;;;25.55;46.41;101111.97;4971337;28;20034;-82
2023/09/10 08:18:55;;;;;;;21.13;4.88;;;;;;;25.68;46.31;101139.53;4986639;28;20105;-80
2023/09/10 08:21:20;;;;;;;22.15;5.13;;;;;;;25.65;46.13;101109.66;4989456;28;20517;-78
2023/09/10 08:23:47;;;;;;;18.60;4.30;;;;;;;25.49;46.07;101112.81;4989787;28;20032;-80
2023/09/10 08:26:13;;;;;;;15.82;4.43;;;;;;;25.63;45.86;101138.44;4990360;28;20045;-82
2023/09/10 08:28:38;;;;;;;13.45;3.00;;;;;;;25.67;45.92;101137.84;4990440;28;20038;-81
2023/09/10 08:31:04;;;;;;;11.35;3.92;;;;;;;25.62;45.51;101134.88;4988851;28;20046;-78
2023/09/10 08:33:29;;;;;;;16.92;4.95;;;;;;;25.50;45.12;101139.31;4989053;28;20026;-79
2023/09/10 08:35:55;;;;;;;35.38;6.00;;;;;;;25.61;45.48;101140.59;4989156;28;20038;-80
2023/09/10 08:38:22;;;;;;;14.35;3.70;;;;;;;25.50;45.12;101128.28;4989924;28;20510;-77
2023/09/10 08:40:59;;;;;;;12.52;4.95;;;;;;;25.58;44.74;101133.59;4989789;28;20038;-79
2023/09/10 08:43:46;;;;;;;38.47;4.60;;;;;;;25.69;44.34;101119.19;4989950;28;20050;-82
2023/09/10 08:46:13;;;;;;;21.75;3.63;;;;;;;25.71;44.33;101135.50;4989616;28;20145;-78
2023/09/10 08:48:43;;;;;;;17.73;4.07;;;;;;;25.74;43.73;101133.19;4990293;28;20542;-84
2023/09/10 08:51:11;;;;;;;12.38;3.05;;;;;;;25.58;42.92;101100.53;4989465;28;20034;-81
2023/09/10 08:53:38;;;;;;;16.25;3.45;;;;;;;25.70;43.41;101126.41;4988377;28;20042;-81
2023/09/10 08:56:04;;;;;;;19.10;3.60;;;;;;;25.86;43.38;101145.28;4988104;28;20030;-79
2023/09/10 08:58:32;;;;;;;13.63;3.35;;;;;;;25.97;42.21;101139.09;4988223;28;20037;-79
2023/09/10 09:00:59;;;;;;;23.15;3.90;;;;;;;25.96;42.22;101137.41;4989980;28;20026;-81
2023/09/10 09:03:26;;;;;;;22.55;3.92;;;;;;;25.86;42.08;101142.50;4988475;28;20061;-79
2023/09/10 09:05:54;;;;;;;11.45;3.25;;;;;;;25.71;42.29;101139.13;4988994;28;20038;-79
2023/09/10 09:08:26;;;;;;;22.25;2.95;;;;;;;25.65;42.53;101162.00;4989179;28;20109;-81
2023/09/10 09:10:51;;;;;;;;;;;;;;;25.67;42.68;101143.34;4990422;28;20027;-82
2023/09/10 09:13:18;;;;;;;10.82;2.80;;;;;;;25.76;42.88;101153.09;4989210;28;19917;-83
2023/09/10 09:15:44;;;;;;;8.30;2.70;;;;;;;25.82;43.26;101152.25;4989464;28;20027;-81
2023/09/10 09:18:14;;;;;;;9.60;3.05;;;;;;;25.95;42.58;101141.25;4990382;28;20034;-85
2023/09/10 09:20:48;;;;;;;13.35;2.80;;;;;;;26.05;42.52;101146.34;4989725;28;20399;-85
2023/09/10 09:23:20;;;;;;;16.38;3.88;;;;;;;26.15;42.56;101156.91;4980345;28;20121;-85
2023/09/10 09:25:47;;;;;;;11.52;3.50;;;;;;;26.22;42.37;101141.22;4988744;28;20110;-82
2023/09/10 09:28:13;;;;;;;22.05;4.00;;;;;;;26.36;42.35;101148.44;4973037;28;20035;-78
2023/09/10 09:30:39;;;;;;;13.30;2.65;;;;;;;26.50;42.23;101150.09;4989179;28;20037;-79
2023/09/10 09:33:05;;;;;;;10.13;2.72;;;;;;;26.61;41.08;101156.84;4990669;28;20120;-92
2023/09/10 09:35:33;;;;;;;16.10;3.30;;;;;;;26.80;40.87;101151.31;4989646;28;20015;-78
2023/09/10 09:38:10;;;;;;;8.02;2.40;;;;;;;26.34;41.22;101095.38;4992107;28;20124;-92
2023/09/10 09:40:36;;;;;;;14.55;3.35;;;;;;;26.52;41.37;101146.06;4991484;28;20030;-90
2023/09/10 09:43:06;;;;;;;10.18;2.47;;;;;;;26.32;41.64;101125.09;4986688;28;20042;-81
2023/09/10 09:45:32;;;;;;;14.52;3.58;;;;;;;26.41;42.77;101145.88;4989340;28;20022;-82
2023/09/10 09:47:58;;;;;;;5.88;2.40;;;;;;;26.42;42.77;101144.81;4989168;28;20046;-80
2023/09/10 09:50:26;;;;;;;6.70;2.00;;;;;;;26.26;43.02;101128.72;4985936;28;20042;-81
2023/09/10 09:52:52;;;;;;;4.75;2.30;;;;;;;26.29;43.00;101145.69;4990657;28;20033;-90
2023/09/10 09:55:17;;;;;;;10.30;2.35;;;;;;;26.31;43.21;101138.03;4991087;28;20493;-78
2023/09/10 09:57:46;;;;;;;11.90;2.85;;;;;;;26.42;42.91;101142.06;4972047;28;20026;-85
2023/09/10 10:00:12;;;;;;;12.23;2.22;;;;;;;26.42;41.85;101142.06;4990806;28;20053;-85
2023/09/10 10:02:38;;;;;;;4.85;2.28;;;;;;;26.42;40.90;101131.03;4991251;28;20154;-85
2023/09/10 10:05:04;;;;;;;31.40;3.55;;;;;;;26.61;41.16;101145.81;4988628;28;20113;-80
2023/09/10 10:07:30;;;;;;;10.95;2.58;;;;;;;26.42;41.53;101120.00;4991329;28;20030;-81
2023/09/10 10:09:58;;;;;;;11.65;2.90;;;;;;;26.45;41.88;101125.09;4993963;28;20118;-84
2023/09/10 10:12:24;;;;;;;18.25;3.05;;;;;;;26.47;42.10;101129.31;4993766;28;20061;-85
2023/09/10 10:14:50;;;;;;;9.48;2.80;;;;;;;26.61;42.56;101134.78;4993807;28;20023;-80
2023/09/10 10:17:16;;;;;;;24.70;3.42;;;;;;;26.56;41.45;101113.38;4989357;28;20030;-81
2023/09/10 10:19:42;;;;;;;9.10;2.45;;;;;;;26.68;40.44;101130.94;4993733;28;20130;-83
2023/09/10 10:22:08;;;;;;;10.65;2.58;;;;;;;26.62;39.91;101134.56;4977056;28;20026;-83
2023/09/10 10:24:35;;;;;;;13.95;2.30;;;;;;;26.66;39.66;101137.75;4993407;28;20041;-85
2023/09/10 10:27:05;;;;;;;14.43;2.42;;;;;;;26.65;39.10;101139.66;4993743;28;20022;-85
2023/09/10 10:29:32;;;;;;;10.32;3.05;;;;;;;26.51;39.36;101133.31;4993551;28;20414;-85
2023/09/10 10:32:07;;;;;;;7.28;2.35;;;;;;;26.62;40.02;101145.59;4993638;28;20050;-82
2023/09/10 10:34:39;;;;;;;10.02;3.05;;;;;;;26.49;39.37;101118.03;4993503;28;20028;-86
2023/09/10 10:37:17;;;;;;;8.25;2.38;;;;;;;26.55;39.44;101136.50;4993223;28;20514;-83
2023/09/10 10:39:59;;;;;;;10.88;2.80;;;;;;;26.53;39.40;101144.16;4993564;28;20065;-83
2023/09/10 10:42:48;;;;;;;8.02;2.20;;;;;;;26.58;39.03;101132.44;4973233;28;20038;-77
2023/09/10 10:45:17;;;;;;;13.13;3.08;;;;;;;26.60;38.75;101128.44;4944099;28;20042;-78
2023/09/10 10:47:44;;;;;;;7.82;2.33;;;;;;;26.64;38.78;101129.66;4998318;28;20521;-81
2023/09/10 10:50:11;;;;;;;10.88;2.55;;;;;;;26.73;38.24;101144.06;4991931;28;20056;-79
2023/09/10 10:52:58;;;;;;;7.30;2.25;;;;;;;26.75;37.81;101131.78;4991666;28;20026;-80
2023/09/10 10:55:25;;;;;;;6.82;2.33;;;;;;;26.47;38.53;101125.69;4987821;28;20117;-82
2023/09/10 10:57:51;;;;;;;10.00;2.83;;;;;;;26.59;39.57;101132.25;4989284;28;20034;-81
2023/09/10 11:00:17;;;;;;;4.88;2.08;;;;;;;26.58;40.53;101138.81;4992578;28;20088;-81
2023/09/10 11:02:45;;;;;;;7.15;1.95;;;;;;;26.59;41.03;101126.72;4975721;28;20039;-82
2023/09/10 11:05:10;;;;;;;7.03;2.42;;;;;;;26.72;40.66;101123.94;4993175;28;20520;-80
2023/09/10 11:07:35;;;;;;;15.13;2.85;;;;;;;26.87;40.24;101130.06;4957386;28;20054;-79
2023/09/10 11:10:27;;;;;;;15.75;2.08;;;;;;;26.90;40.56;101118.56;4992481;28;20129;-80
2023/09/10 11:13:09;;;;;;;8.35;2.10;;;;;;;26.86;41.08;101122.81;4992835;28;20569;-77
2023/09/10 11:15:34;;;;;;;;;;;;;;;26.86;40.64;101111.78;4967594;28;20047;-82
2023/09/10 11:18:37;;;;;;;10.23;1.80;;;;;;;26.69;40.87;101123.50;4986139;28;19920;-82